createdAt,value
2022-11-04T00:02:06.589Z,99307.59
2022-11-04T00:04:33.284Z,99367.28
2022-11-04T00:07:00.208Z,99354.09
2022-11-04T00:09:28.701Z,99382.16
2022-11-04T00:12:14.194Z,99371.00
2022-11-04T00:14:40.882Z,99350.97
2022-11-04T00:17:20.043Z,99326.63
2022-11-04T00:20:07.458Z,99277.72
2022-11-04T00:22:59.999Z,99353.47
2022-11-04T00:25:45.562Z,99358.16
2022-11-04T00:28:34.492Z,99367.44
2022-11-04T00:31:22.470Z,99379.03
2022-11-04T00:33:50.443Z,99391.63
2022-11-04T00:36:17.208Z,99363.88
2022-11-04T00:38:43.836Z,99421.50
2022-11-04T00:41:30.051Z,99371.22
2022-11-04T00:43:56.835Z,99426.19
2022-11-04T00:46:23.400Z,99421.13
2022-11-04T00:48:50.001Z,99399.50
2022-11-04T00:51:16.677Z,99396.03
2022-11-04T00:53:43.206Z,99429.25
2022-11-04T00:56:09.694Z,99422.66
2022-11-04T00:58:36.905Z,99408.28
2022-11-04T01:01:10.554Z,99394.91
2022-11-04T01:03:37.197Z,99423.09
2022-11-04T01:06:03.982Z,99450.38
2022-11-04T01:08:30.579Z,99421.28
2022-11-04T01:10:57.311Z,99390.06
2022-11-04T01:13:23.839Z,99451.50
2022-11-04T01:15:50.342Z,99458.13
2022-11-04T01:18:16.828Z,99439.91
2022-11-04T01:20:43.267Z,99483.25
2022-11-04T01:23:09.833Z,99431.53
2022-11-04T01:25:40.657Z,99488.69
2022-11-04T01:28:07.993Z,99450.41
2022-11-04T01:30:35.281Z,99490.50
2022-11-04T01:33:01.790Z,99496.38
2022-11-04T01:35:28.252Z,99487.38
2022-11-04T01:37:54.836Z,99485.56
2022-11-04T01:40:21.306Z,99508.06
2022-11-04T01:42:47.887Z,99494.34
2022-11-04T01:45:16.812Z,99501.31
2022-11-04T01:47:46.265Z,99488.78
2022-11-04T01:50:16.258Z,99512.78
2022-11-04T01:52:50.441Z,99475.44
2022-11-04T01:55:22.761Z,99519.13
2022-11-04T01:57:50.320Z,99514.09
2022-11-04T02:00:17.110Z,99481.13
2022-11-04T02:02:53.865Z,99513.28
2022-11-04T02:05:21.198Z,99506.53
2022-11-04T02:07:53.224Z,99420.25
2022-11-04T02:10:21.351Z,99506.50
2022-11-04T02:12:51.049Z,99448.19
2022-11-04T02:15:39.022Z,99519.78
2022-11-04T02:18:47.641Z,99521.47
2022-11-04T02:21:25.368Z,99537.56
2022-11-04T02:24:30.442Z,99534.09
2022-11-04T02:27:27.831Z,99534.72
2022-11-04T02:30:00.328Z,99529.50
2022-11-04T02:33:15.516Z,99537.38
2022-11-04T02:35:54.320Z,99533.66
2022-11-04T02:38:30.797Z,99521.88
2022-11-04T02:40:57.175Z,99520.31
2022-11-04T02:43:39.614Z,99524.19
2022-11-04T02:46:32.144Z,99515.38
2022-11-04T02:49:07.825Z,99519.78
2022-11-04T02:51:54.986Z,99516.78
2022-11-04T02:54:36.519Z,99470.28
2022-11-04T02:57:05.106Z,99496.75
2022-11-04T03:00:16.261Z,99517.53
2022-11-04T03:02:46.793Z,99512.19
2022-11-04T03:05:16.391Z,99521.66
2022-11-04T03:07:44.125Z,99531.22
2022-11-04T03:10:30.616Z,99541.19
2022-11-04T03:13:02.860Z,99513.53
2022-11-04T03:15:32.041Z,99532.16
2022-11-04T03:18:08.703Z,99535.84
2022-11-04T03:20:36.757Z,99546.88
2022-11-04T03:23:03.929Z,99540.97
2022-11-04T03:25:35.379Z,99540.63
2022-11-04T03:28:02.265Z,99532.66
2022-11-04T03:30:36.287Z,99485.66
2022-11-04T03:33:12.614Z,99539.31
2022-11-04T03:35:40.553Z,99531.88
2022-11-04T03:38:07.105Z,99504.91
2022-11-04T03:40:34.721Z,99528.53
2022-11-04T03:43:09.154Z,99505.09
2022-11-04T03:45:36.019Z,99527.31
2022-11-04T03:48:02.917Z,99490.56
2022-11-04T03:50:35.727Z,99564.59
2022-11-04T03:53:02.419Z,99549.75
2022-11-04T03:55:54.122Z,99508.84
2022-11-04T03:58:45.459Z,99561.78
2022-11-04T04:01:36.929Z,99570.16
2022-11-04T04:04:06.566Z,99565.88
2022-11-04T04:06:35.908Z,99551.06
2022-11-04T04:09:11.634Z,99552.25
2022-11-04T04:11:47.227Z,99577.34
2022-11-04T04:14:41.357Z,99545.63
2022-11-04T04:17:13.872Z,99587.97
2022-11-04T04:19:45.724Z,99583.50
2022-11-04T04:22:22.884Z,99578.94
2022-11-04T04:25:09.603Z,99599.66
2022-11-04T04:27:36.405Z,99582.53
2022-11-04T04:30:09.705Z,99591.28
2022-11-04T04:32:39.724Z,99596.72
2022-11-04T04:35:26.331Z,99604.81
2022-11-04T04:37:54.777Z,99568.03
2022-11-04T04:40:42.884Z,99607.38
2022-11-04T04:43:33.486Z,99600.44
2022-11-04T04:46:00.881Z,99597.09
2022-11-04T04:48:27.361Z,99556.63
2022-11-04T04:50:57.197Z,99620.50
2022-11-04T04:53:23.757Z,99570.75
2022-11-04T04:55:50.207Z,99596.00
2022-11-04T04:58:16.768Z,99570.44
2022-11-04T05:00:43.247Z,99600.78
2022-11-04T05:03:10.134Z,99623.19
2022-11-04T05:05:36.916Z,99590.41
2022-11-04T05:08:08.257Z,99641.69
2022-11-04T05:10:35.172Z,99641.63
2022-11-04T05:13:20.471Z,99612.06
2022-11-04T05:15:47.025Z,99626.47
2022-11-04T05:18:13.509Z,99648.09
2022-11-04T05:20:40.606Z,99614.28
2022-11-04T05:23:08.044Z,99644.28
2022-11-04T05:25:34.685Z,99635.34
2022-11-04T05:28:02.057Z,99618.91
2022-11-04T05:30:28.997Z,99669.31
2022-11-04T05:32:59.809Z,99646.56
2022-11-04T05:35:30.257Z,99681.13
2022-11-04T05:37:57.181Z,99686.72
2022-11-04T05:40:24.650Z,99688.97
2022-11-04T05:42:51.169Z,99663.09
2022-11-04T05:45:17.873Z,99661.47
2022-11-04T05:47:45.115Z,99692.50
2022-11-04T05:50:11.737Z,99657.25
2022-11-04T05:52:38.282Z,99674.97
2022-11-04T05:55:05.398Z,99630.06
2022-11-04T05:57:31.899Z,99683.06
2022-11-04T05:59:58.444Z,99603.25
2022-11-04T06:02:26.205Z,99690.38
2022-11-04T06:04:52.969Z,99611.28
2022-11-04T06:07:19.451Z,99641.53
2022-11-04T06:09:46.054Z,99705.34
2022-11-04T06:12:17.455Z,99693.50
2022-11-04T06:14:44.376Z,99680.31
2022-11-04T06:17:15.259Z,99577.16
2022-11-04T06:19:41.936Z,99682.41
2022-11-04T06:22:11.169Z,99690.59
2022-11-04T06:24:37.925Z,99718.03
2022-11-04T06:27:05.025Z,99677.34
2022-11-04T06:29:31.645Z,99723.66
2022-11-04T06:31:58.305Z,99719.50
2022-11-04T06:34:25.061Z,99726.66
2022-11-04T06:36:51.717Z,99714.34
2022-11-04T06:39:18.194Z,99719.97
2022-11-04T06:41:47.629Z,99744.69
2022-11-04T06:44:17.073Z,99756.19
2022-11-04T06:46:43.905Z,99749.72
2022-11-04T06:49:13.631Z,99751.41
2022-11-04T06:51:40.712Z,99745.53
2022-11-04T06:54:07.766Z,99649.06
2022-11-04T06:56:34.323Z,99723.94
2022-11-04T06:59:00.853Z,99762.00
2022-11-04T07:01:29.703Z,99760.50
2022-11-04T07:03:58.126Z,99756.44
2022-11-04T07:06:25.667Z,99733.88
2022-11-04T07:08:53.078Z,99759.13
2022-11-04T07:11:21.451Z,99754.84
2022-11-04T07:13:49.026Z,99692.81
2022-11-04T07:16:16.372Z,99775.53
2022-11-04T07:18:43.693Z,99753.06
2022-11-04T07:21:11.251Z,99788.13
2022-11-04T07:23:38.025Z,99773.69
2022-11-04T07:26:06.743Z,99780.97
2022-11-04T07:28:33.765Z,99816.56
2022-11-04T07:31:02.238Z,99798.16
2022-11-04T07:33:28.716Z,99820.31
2022-11-04T07:35:58.208Z,99819.72
2022-11-04T07:38:25.297Z,99791.09
2022-11-04T07:40:51.694Z,99805.75
2022-11-04T07:43:18.453Z,99805.41
2022-11-04T07:45:45.005Z,99797.13
2022-11-04T07:48:11.714Z,99811.78
2022-11-04T07:50:40.666Z,99792.09
2022-11-04T07:53:08.418Z,99818.34
2022-11-04T07:55:42.068Z,99816.63
2022-11-04T07:58:10.772Z,99816.25
2022-11-04T08:00:37.280Z,99816.56
2022-11-04T08:03:03.853Z,99819.84
2022-11-04T08:05:30.521Z,99815.84
2022-11-04T08:07:57.877Z,99787.59
2022-11-04T08:10:24.558Z,99797.47
2022-11-04T08:12:52.175Z,99794.13
2022-11-04T08:15:18.697Z,99821.19
2022-11-04T08:17:45.259Z,99829.22
2022-11-04T08:20:13.096Z,99830.34
2022-11-04T08:22:39.806Z,99827.50
2022-11-04T08:25:06.717Z,99828.84
2022-11-04T08:27:34.436Z,99831.13
2022-11-04T08:30:00.933Z,99831.22
2022-11-04T08:32:27.569Z,99838.56
2022-11-04T08:34:54.024Z,99834.81
2022-11-04T08:37:20.600Z,99839.63
2022-11-04T08:39:47.124Z,99835.94
2022-11-04T08:42:13.826Z,99842.41
2022-11-04T08:44:41.075Z,99823.25
2022-11-04T08:47:07.583Z,99800.50
2022-11-04T08:49:38.884Z,99825.41
2022-11-04T08:52:05.732Z,99832.63
2022-11-04T08:54:32.243Z,99843.41
2022-11-04T08:56:58.865Z,99822.69
2022-11-04T08:59:25.478Z,99816.28
2022-11-04T09:01:52.295Z,99822.81
2022-11-04T09:04:19.823Z,99830.84
2022-11-04T09:06:47.167Z,99829.09
2022-11-04T09:09:15.353Z,99830.03
2022-11-04T09:11:43.286Z,99803.69
2022-11-04T09:14:10.506Z,99798.72
2022-11-04T09:16:38.020Z,99809.50
2022-11-04T09:19:04.630Z,99797.66
2022-11-04T09:21:31.126Z,99816.94
2022-11-04T09:23:57.654Z,99812.75
2022-11-04T09:26:24.567Z,99799.25
2022-11-04T09:28:58.233Z,99805.25
2022-11-04T09:31:26.769Z,99794.25
2022-11-04T09:33:54.920Z,99787.03
2022-11-04T09:36:21.452Z,99779.50
2022-11-04T09:38:47.969Z,99796.16
2022-11-04T09:41:46.022Z,99803.94
2022-11-04T09:44:28.204Z,99787.25
2022-11-04T09:47:01.851Z,99810.31
2022-11-04T09:49:32.675Z,99816.25
2022-11-04T09:51:59.604Z,99801.59
2022-11-04T09:54:47.097Z,99803.19
2022-11-04T09:57:17.885Z,99806.56
2022-11-04T09:59:44.665Z,99813.59
2022-11-04T10:02:11.761Z,99812.84
2022-11-04T10:04:57.091Z,99823.38
2022-11-04T10:07:42.711Z,99829.03
2022-11-04T10:10:37.986Z,99827.16
2022-11-04T10:13:17.489Z,99831.00
2022-11-04T10:16:13.254Z,99837.66
2022-11-04T10:18:57.646Z,99840.78
2022-11-04T10:22:04.608Z,99847.63
2022-11-04T10:24:57.390Z,99856.50
2022-11-04T10:27:27.430Z,99856.88
2022-11-04T10:29:58.448Z,99846.81
2022-11-04T10:33:00.150Z,99822.94
2022-11-04T10:35:48.633Z,99852.03
2022-11-04T10:38:22.844Z,99843.66
2022-11-04T10:40:52.007Z,99827.28
2022-11-04T10:43:33.361Z,99856.91
2022-11-04T10:46:12.201Z,99861.34
2022-11-04T10:48:49.663Z,99852.75
2022-11-04T10:51:22.142Z,99845.34
2022-11-04T10:53:55.302Z,99856.09
2022-11-04T10:56:40.891Z,99853.47
2022-11-04T10:59:21.545Z,99871.34
2022-11-04T11:01:52.159Z,99858.38
2022-11-04T11:04:33.658Z,99858.50
2022-11-04T11:07:05.463Z,99870.19
2022-11-04T11:09:33.728Z,99830.84
2022-11-04T11:12:09.836Z,99871.69
2022-11-04T11:14:44.460Z,99880.25
2022-11-04T11:17:39.088Z,99891.41
2022-11-04T11:20:16.778Z,99883.41
2022-11-04T11:22:45.014Z,99889.78
2022-11-04T11:25:25.099Z,99893.69
2022-11-04T11:27:56.401Z,99899.41
2022-11-04T11:30:26.176Z,99897.53
2022-11-04T11:32:55.848Z,99904.50
2022-11-04T11:35:26.023Z,99908.72
2022-11-04T11:37:52.784Z,99861.72
2022-11-04T11:40:26.965Z,99853.06
2022-11-04T11:42:53.835Z,99907.06
2022-11-04T11:45:21.049Z,99904.72
2022-11-04T11:47:52.393Z,99906.88
2022-11-04T11:50:35.685Z,99900.91
2022-11-04T11:53:16.972Z,99879.00
2022-11-04T11:56:09.624Z,99884.81
2022-11-04T12:01:42.361Z,99851.41
2022-11-04T12:10:50.516Z,99891.94
2022-11-04T12:13:32.215Z,99899.53
2022-11-04T12:16:17.426Z,99887.56
2022-11-04T12:19:08.594Z,99902.13
2022-11-04T12:22:18.634Z,99900.69
2022-11-04T12:24:56.332Z,99906.81
2022-11-04T12:27:33.292Z,99907.81
2022-11-04T12:30:10.439Z,99879.25
2022-11-04T12:32:58.293Z,99912.13
2022-11-04T12:35:42.976Z,99908.69
2022-11-04T12:38:26.208Z,99904.63
2022-11-04T12:41:46.725Z,99889.22
2022-11-04T12:44:42.294Z,99905.84
2022-11-04T12:47:27.426Z,99909.97
2022-11-04T12:50:15.778Z,99910.94
2022-11-04T12:53:19.488Z,99917.53
2022-11-04T12:56:09.659Z,99920.72
2022-11-04T12:58:47.635Z,99928.03
2022-11-04T13:01:22.305Z,99925.84
2022-11-04T13:03:53.698Z,99918.34
2022-11-04T13:06:31.106Z,99920.91
2022-11-04T13:09:05.854Z,99858.28
2022-11-04T13:11:49.814Z,99912.22
2022-11-04T13:14:22.856Z,99886.94
2022-11-04T13:16:54.330Z,99910.41
2022-11-04T13:19:25.318Z,99934.63
2022-11-04T13:21:53.204Z,99906.00
2022-11-04T13:24:25.965Z,99936.38
2022-11-04T13:26:52.571Z,99902.81
2022-11-04T13:29:21.854Z,99950.63
2022-11-04T13:31:51.224Z,99956.06
2022-11-04T13:34:37.590Z,99951.00
2022-11-04T13:37:25.299Z,99918.53
2022-11-04T13:39:56.438Z,99957.50
2022-11-04T13:42:41.229Z,99968.91
2022-11-04T13:45:14.068Z,99977.72
2022-11-04T13:47:50.554Z,99964.38
2022-11-04T13:50:36.548Z,99981.75
2022-11-04T13:53:09.426Z,99928.63
2022-11-04T13:55:37.137Z,99978.94
2022-11-04T13:58:05.468Z,99979.53
2022-11-04T14:00:33.313Z,99986.25
2022-11-04T14:03:01.708Z,99950.31
2022-11-04T14:05:28.466Z,100003.53
2022-11-04T14:08:01.241Z,100007.47
2022-11-04T14:10:48.898Z,100008.50
2022-11-04T14:13:31.955Z,100013.09
2022-11-04T14:16:17.520Z,100016.25
2022-11-04T14:18:46.270Z,100019.59
2022-11-04T14:21:26.762Z,100015.91
2022-11-04T14:24:00.217Z,100024.75
2022-11-04T14:26:30.760Z,99998.53
2022-11-04T14:29:05.132Z,100021.44
2022-11-04T14:31:43.936Z,100032.06
2022-11-04T14:34:25.574Z,100035.41
2022-11-04T14:36:56.854Z,100038.50
2022-11-04T14:39:31.266Z,100042.91
2022-11-04T14:42:01.884Z,100038.56
2022-11-04T14:44:34.517Z,100044.88
2022-11-04T14:47:19.576Z,100044.94
2022-11-04T14:50:01.143Z,100057.97
2022-11-04T14:52:35.297Z,100047.69
2022-11-04T14:55:14.676Z,100057.53
2022-11-04T14:57:55.931Z,100062.78
2022-11-04T15:00:39.778Z,100067.38
2022-11-04T15:04:08.727Z,100063.41
2022-11-04T15:06:10.955Z,100057.41
2022-11-04T15:08:42.938Z,100045.03
2022-11-04T15:11:17.709Z,100051.06
2022-11-04T15:13:48.534Z,100070.44
2022-11-04T15:16:21.308Z,100024.78
2022-11-04T15:18:48.134Z,100062.94
2022-11-04T15:21:15.208Z,100086.41
2022-11-04T15:23:50.178Z,100089.94
2022-11-04T15:26:30.123Z,100101.53
2022-11-04T15:29:00.238Z,100053.41
2022-11-04T15:31:32.505Z,100115.22
2022-11-04T15:34:01.079Z,100118.44
2022-11-04T15:36:39.743Z,100121.97
2022-11-04T15:39:20.150Z,100124.25
2022-11-04T15:42:06.510Z,100128.63
2022-11-04T15:44:35.521Z,100133.13
2022-11-04T15:47:22.983Z,100125.94
2022-11-04T15:49:51.988Z,100127.59
2022-11-04T15:52:24.048Z,100134.22
2022-11-04T15:54:55.399Z,100140.97
2022-11-04T15:57:32.331Z,100127.28
2022-11-04T16:00:06.429Z,100148.66
2022-11-04T16:02:37.683Z,100124.59
2022-11-04T16:05:10.618Z,100113.19
2022-11-04T16:07:39.148Z,100149.53
2022-11-04T16:10:25.782Z,100155.03
2022-11-04T16:13:18.322Z,100111.72
2022-11-04T16:15:51.584Z,100144.19
2022-11-04T16:18:35.159Z,100167.47
2022-11-04T16:21:30.746Z,100132.56
2022-11-04T16:24:04.803Z,100177.06
2022-11-04T16:26:44.452Z,100178.53
2022-11-04T16:29:21.346Z,100180.34
2022-11-04T16:32:05.723Z,100160.84
2022-11-04T16:34:32.208Z,100161.69
2022-11-04T16:36:59.037Z,100186.47
2022-11-04T16:39:25.470Z,100161.72
2022-11-04T16:41:52.054Z,100197.06
2022-11-04T16:44:21.610Z,100204.03
2022-11-04T16:46:48.465Z,100196.88
2022-11-04T16:49:16.521Z,100183.81
2022-11-04T16:51:43.212Z,100202.25
2022-11-04T16:54:10.309Z,100146.31
2022-11-04T16:56:38.260Z,100160.34
2022-11-04T16:59:05.225Z,100188.78
2022-11-04T17:01:32.038Z,100197.75
2022-11-04T17:03:58.595Z,100170.38
2022-11-04T17:06:25.516Z,100224.50
2022-11-04T17:08:53.210Z,100226.88
2022-11-04T17:11:19.915Z,100222.94
2022-11-04T17:13:46.405Z,100222.16
2022-11-04T17:16:14.193Z,100233.28
2022-11-04T17:18:41.207Z,100227.63
2022-11-04T17:21:09.504Z,100220.94
2022-11-04T17:23:36.073Z,100232.63
2022-11-04T17:26:03.284Z,100223.94
2022-11-04T17:28:31.513Z,100240.31
2022-11-04T17:30:58.050Z,100242.88
2022-11-04T17:33:24.672Z,100214.78
2022-11-04T17:35:51.612Z,100247.75
2022-11-04T17:38:18.674Z,100245.66
2022-11-04T17:41:04.210Z,100249.88
2022-11-04T17:43:49.930Z,100256.13
2022-11-04T17:46:35.300Z,100250.41
2022-11-04T17:49:03.837Z,100229.13
2022-11-04T17:51:31.207Z,100277.38
2022-11-04T17:53:58.009Z,100280.41
2022-11-04T17:56:25.255Z,100230.25
2022-11-04T17:58:52.220Z,100221.47
2022-11-04T18:01:21.846Z,100240.97
2022-11-04T18:03:48.427Z,100243.69
2022-11-04T18:06:14.913Z,100288.28
2022-11-04T18:08:41.449Z,100295.38
2022-11-04T18:11:10.476Z,100296.13
2022-11-04T18:13:37.328Z,100200.34
2022-11-04T18:16:11.893Z,100298.66
2022-11-04T18:18:38.978Z,100289.16
2022-11-04T18:21:07.826Z,100295.38
2022-11-04T18:23:34.657Z,100288.09
2022-11-04T18:26:02.844Z,100301.56
2022-11-04T18:28:29.394Z,100311.75
2022-11-04T18:30:55.919Z,100297.41
2022-11-04T18:33:22.408Z,100306.47
2022-11-04T18:35:48.818Z,100274.59
2022-11-04T18:38:15.338Z,100292.25
2022-11-04T18:40:41.810Z,100321.69
2022-11-04T18:43:09.261Z,100324.44
2022-11-04T18:45:36.521Z,100302.69
2022-11-04T18:48:03.053Z,100316.94
2022-11-04T18:50:30.217Z,100290.19
2022-11-04T18:52:56.668Z,100317.81
2022-11-04T18:55:24.001Z,100339.31
2022-11-04T18:57:54.580Z,100181.34
2022-11-04T19:00:21.562Z,100341.91
2022-11-04T19:02:48.284Z,100306.22
2022-11-04T19:05:14.997Z,100340.38
2022-11-04T19:07:42.040Z,100299.69
2022-11-04T19:10:09.118Z,100340.81
2022-11-04T19:12:54.516Z,100285.53
2022-11-04T19:15:21.121Z,100345.00
2022-11-04T19:17:47.601Z,100319.00
2022-11-04T19:20:14.483Z,100350.03
2022-11-04T19:22:41.243Z,100290.47
2022-11-04T19:25:08.951Z,100354.00
2022-11-04T19:27:35.624Z,100320.69
2022-11-04T19:30:02.178Z,100343.66
2022-11-04T19:32:28.717Z,100365.78
2022-11-04T19:34:55.269Z,100360.78
2022-11-04T19:37:21.705Z,100360.69
2022-11-04T19:39:48.163Z,100383.72
2022-11-04T19:42:34.285Z,100368.50
2022-11-04T19:45:02.221Z,100379.56
2022-11-04T19:47:28.747Z,100382.59
2022-11-04T19:49:55.759Z,100372.34
2022-11-04T19:52:22.637Z,100357.50
2022-11-04T19:54:49.105Z,100346.06
2022-11-04T19:57:16.368Z,100390.75
2022-11-04T19:59:42.903Z,100402.56
2022-11-04T20:02:13.057Z,100375.81
2022-11-04T20:04:39.602Z,100405.34
2022-11-04T20:07:06.145Z,100389.13
2022-11-04T20:09:32.660Z,100382.69
2022-11-04T20:12:17.927Z,100409.28
2022-11-04T20:14:44.753Z,100417.22
2022-11-04T20:17:11.269Z,100415.97
2022-11-04T20:19:37.729Z,100422.94
2022-11-04T20:22:04.207Z,100422.13
2022-11-04T20:24:30.804Z,100409.53
2022-11-04T20:26:57.497Z,100412.63
2022-11-04T20:29:24.411Z,100439.00
2022-11-04T20:31:50.899Z,100418.81
2022-11-04T20:34:17.461Z,100446.00
2022-11-04T20:36:44.079Z,100419.66
2022-11-04T20:39:14.468Z,100446.97
2022-11-04T20:41:42.067Z,100424.25
2022-11-04T20:44:13.143Z,100433.53
2022-11-04T20:46:40.112Z,100406.13
2022-11-04T20:49:06.830Z,100427.78
2022-11-04T20:51:35.969Z,100467.53
2022-11-04T20:54:06.552Z,100474.34
2022-11-04T20:56:35.954Z,100478.13
2022-11-04T20:59:04.501Z,100487.63
2022-11-04T21:01:33.640Z,100493.47
2022-11-04T21:04:03.280Z,100484.03
2022-11-04T21:06:30.334Z,100468.41
2022-11-04T21:08:58.846Z,100471.22
2022-11-04T21:11:31.548Z,100487.88
2022-11-04T21:13:58.923Z,100466.38
2022-11-04T21:16:25.446Z,100438.53
2022-11-04T21:18:51.951Z,100453.78
2022-11-04T21:21:20.441Z,100492.47
2022-11-04T21:23:47.099Z,100477.41
2022-11-04T21:26:24.631Z,100508.84
2022-11-04T21:29:01.412Z,100465.03
2022-11-04T21:31:29.866Z,100527.56
2022-11-04T21:33:56.584Z,100525.69
2022-11-04T21:36:23.427Z,100530.22
2022-11-04T21:38:50.394Z,100514.72
2022-11-04T21:41:22.175Z,100534.94
2022-11-04T21:43:53.803Z,100545.59
2022-11-04T21:46:20.316Z,100490.06
2022-11-04T21:48:46.811Z,100547.69
2022-11-04T21:51:16.309Z,100554.84
2022-11-04T21:53:43.237Z,100550.22
2022-11-04T21:56:15.540Z,100503.94
2022-11-04T21:58:43.362Z,100564.09
2022-11-04T22:01:17.242Z,100562.97
2022-11-04T22:03:44.370Z,100564.38
2022-11-04T22:06:13.161Z,100577.44
2022-11-04T22:08:44.006Z,100568.75
2022-11-04T22:11:13.753Z,100553.03
2022-11-04T22:13:40.931Z,100578.97
2022-11-04T22:16:16.059Z,100577.19
2022-11-04T22:18:43.296Z,100529.63
2022-11-04T22:21:15.594Z,100575.47
2022-11-04T22:23:42.967Z,100575.47
2022-11-04T22:26:24.758Z,100554.31
2022-11-04T22:28:51.908Z,100519.78
2022-11-04T22:31:27.631Z,100579.84
2022-11-04T22:33:54.396Z,100579.53
2022-11-04T22:36:21.194Z,100589.81
2022-11-04T22:38:47.714Z,100593.56
2022-11-04T22:41:24.387Z,100576.31
2022-11-04T22:43:50.982Z,100596.94
2022-11-04T22:46:23.626Z,100598.91
2022-11-04T22:48:50.581Z,100600.00
2022-11-04T22:51:17.317Z,100563.69
2022-11-04T22:53:44.599Z,100586.84
2022-11-04T22:56:13.130Z,100607.06
2022-11-04T22:58:40.717Z,100616.31
2022-11-04T23:01:12.620Z,100612.53
2022-11-04T23:03:39.644Z,100615.75
2022-11-04T23:06:07.372Z,100612.25
2022-11-04T23:08:35.505Z,100617.16
2022-11-04T23:11:24.911Z,100616.31
2022-11-04T23:14:20.085Z,100616.03
2022-11-04T23:17:08.534Z,100613.69
2022-11-04T23:19:35.731Z,100614.31
2022-11-04T23:22:20.986Z,100619.69
2022-11-04T23:25:05.985Z,100612.25
2022-11-04T23:27:56.804Z,100618.69
2022-11-04T23:30:25.747Z,100614.50
2022-11-04T23:33:04.385Z,100611.28
2022-11-04T23:35:54.145Z,100622.78
2022-11-04T23:38:20.894Z,100623.56
2022-11-04T23:41:08.200Z,100619.94
2022-11-04T23:43:35.432Z,100622.25
2022-11-04T23:46:21.142Z,100615.66
2022-11-04T23:49:06.195Z,100631.66
2022-11-04T23:51:51.658Z,100610.38
2022-11-04T23:54:36.869Z,100614.34
2022-11-04T23:57:22.196Z,100629.44
